sensor_id;sensor_type;location;lat;lon;timestamp;temperature;humidity
76509;SHT31;65340;51.966;5.652;2023-03-31T00:00:25;16.2;58.8
76509;SHT31;65340;51.966;5.652;2023-03-31T00:02:55;16.2;58.8
76509;SHT31;65340;51.966;5.652;2023-03-31T00:05:25;16.2;58.8
76509;SHT31;65340;51.966;5.652;2023-03-31T00:07:56;16.2;58.8
76509;SHT31;65340;51.966;5.652;2023-03-31T00:10:28;16.2;58.9
76509;SHT31;65340;51.966;5.652;2023-03-31T00:13:00;16.2;58.9
76509;SHT31;65340;51.966;5.652;2023-03-31T00:15:32;16.2;58.8
76509;SHT31;65340;51.966;5.652;2023-03-31T00:18:01;16.2;58.9
76509;SHT31;65340;51.966;5.652;2023-03-31T00:20:33;16.2;59.0
76509;SHT31;65340;51.966;5.652;2023-03-31T00:23:05;16.2;59.0
76509;SHT31;65340;51.966;5.652;2023-03-31T00:25:40;16.2;58.9
76509;SHT31;65340;51.966;5.652;2023-03-31T00:28:09;16.2;58.9
76509;SHT31;65340;51.966;5.652;2023-03-31T00:30:39;16.2;58.9
76509;SHT31;65340;51.966;5.652;2023-03-31T00:33:09;16.2;59.0
76509;SHT31;65340;51.966;5.652;2023-03-31T00:35:38;16.2;59.0
76509;SHT31;65340;51.966;5.652;2023-03-31T00:38:08;16.2;59.1
76509;SHT31;65340;51.966;5.652;2023-03-31T00:40:45;16.2;59.1
76509;SHT31;65340;51.966;5.652;2023-03-31T00:43:25;16.2;59.0
76509;SHT31;65340;51.966;5.652;2023-03-31T00:46:00;16.2;59.1
76509;SHT31;65340;51.966;5.652;2023-03-31T00:48:35;16.2;59.1
76509;SHT31;65340;51.966;5.652;2023-03-31T00:51:06;16.2;59.2
76509;SHT31;65340;51.966;5.652;2023-03-31T00:53:36;16.2;59.2
76509;SHT31;65340;51.966;5.652;2023-03-31T00:56:12;16.2;59.3
76509;SHT31;65340;51.966;5.652;2023-03-31T00:58:43;16.1;59.3
76509;SHT31;65340;51.966;5.652;2023-03-31T01:01:18;16.1;59.5
76509;SHT31;65340;51.966;5.652;2023-03-31T01:03:52;16.1;59.5
76509;SHT31;65340;51.966;5.652;2023-03-31T01:06:22;16.1;59.6
76509;SHT31;65340;51.966;5.652;2023-03-31T01:08:52;16.1;59.7
76509;SHT31;65340;51.966;5.652;2023-03-31T01:11:26;16.1;59.9
76509;SHT31;65340;51.966;5.652;2023-03-31T01:13:58;16.1;59.9
76509;SHT31;65340;51.966;5.652;2023-03-31T01:16:27;16.1;59.9
76509;SHT31;65340;51.966;5.652;2023-03-31T01:18:58;16.1;59.9
76509;SHT31;65340;51.966;5.652;2023-03-31T01:23:09;16.1;59.9
76509;SHT31;65340;51.966;5.652;2023-03-31T01:26:45;16.1;60.0
76509;SHT31;65340;51.966;5.652;2023-03-31T01:29:40;16.1;60.1
76509;SHT31;65340;51.966;5.652;2023-03-31T01:39:58;16.1;60.1
76509;SHT31;65340;51.966;5.652;2023-03-31T01:42:35;16.1;60.1
76509;SHT31;65340;51.966;5.652;2023-03-31T01:45:18;16.1;60.1
76509;SHT31;65340;51.966;5.652;2023-03-31T01:47:56;16.1;60.1
76509;SHT31;65340;51.966;5.652;2023-03-31T01:50:34;16.1;60.1
76509;SHT31;65340;51.966;5.652;2023-03-31T01:53:13;16.1;60.2
76509;SHT31;65340;51.966;5.652;2023-03-31T01:55:47;16.1;60.1
76509;SHT31;65340;51.966;5.652;2023-03-31T01:58:22;16.1;60.2
76509;SHT31;65340;51.966;5.652;2023-03-31T02:00:58;16.1;60.2
76509;SHT31;65340;51.966;5.652;2023-03-31T02:03:35;16.1;60.2
76509;SHT31;65340;51.966;5.652;2023-03-31T02:06:10;16.1;60.2
76509;SHT31;65340;51.966;5.652;2023-03-31T02:08:45;16.1;60.2
76509;SHT31;65340;51.966;5.652;2023-03-31T02:11:17;16.1;60.2
76509;SHT31;65340;51.966;5.652;2023-03-31T02:13:51;16.1;60.3
76509;SHT31;65340;51.966;5.652;2023-03-31T02:16:25;16.1;60.3
76509;SHT31;65340;51.966;5.652;2023-03-31T02:19:00;16.1;60.2
76509;SHT31;65340;51.966;5.652;2023-03-31T02:21:37;16.1;60.3
76509;SHT31;65340;51.966;5.652;2023-03-31T02:24:11;16.1;60.3
76509;SHT31;65340;51.966;5.652;2023-03-31T02:26:47;16.1;60.3
76509;SHT31;65340;51.966;5.652;2023-03-31T02:29:19;16.1;60.3
76509;SHT31;65340;51.966;5.652;2023-03-31T02:31:57;16.1;60.4
76509;SHT31;65340;51.966;5.652;2023-03-31T02:34:29;16.1;60.4
76509;SHT31;65340;51.966;5.652;2023-03-31T02:36:59;16.1;60.4
76509;SHT31;65340;51.966;5.652;2023-03-31T02:39:33;16.1;60.4
76509;SHT31;65340;51.966;5.652;2023-03-31T02:42:04;16.1;60.4
76509;SHT31;65340;51.966;5.652;2023-03-31T02:44:36;16.1;60.6
76509;SHT31;65340;51.966;5.652;2023-03-31T02:47:08;16.1;60.5
76509;SHT31;65340;51.966;5.652;2023-03-31T02:49:41;16.1;60.6
76509;SHT31;65340;51.966;5.652;2023-03-31T02:52:24;16.1;60.7
76509;SHT31;65340;51.966;5.652;2023-03-31T02:55:19;16.1;60.6
76509;SHT31;65340;51.966;5.652;2023-03-31T02:58:51;16.1;60.6
76509;SHT31;65340;51.966;5.652;2023-03-31T03:01:55;16.1;60.7
76509;SHT31;65340;51.966;5.652;2023-03-31T03:04:50;16.1;60.6
76509;SHT31;65340;51.966;5.652;2023-03-31T03:07:32;16.1;60.6
76509;SHT31;65340;51.966;5.652;2023-03-31T03:10:09;16.1;60.6
76509;SHT31;65340;51.966;5.652;2023-03-31T03:12:50;16.1;60.6
76509;SHT31;65340;51.966;5.652;2023-03-31T03:15:25;16.1;60.6
76509;SHT31;65340;51.966;5.652;2023-03-31T03:17:58;16.1;60.6
76509;SHT31;65340;51.966;5.652;2023-03-31T03:20:28;16.1;60.6
76509;SHT31;65340;51.966;5.652;2023-03-31T03:23:00;16.1;60.6
76509;SHT31;65340;51.966;5.652;2023-03-31T03:25:33;16.1;60.7
76509;SHT31;65340;51.966;5.652;2023-03-31T03:28:02;16.1;60.5
76509;SHT31;65340;51.966;5.652;2023-03-31T03:30:33;16.1;60.5
76509;SHT31;65340;51.966;5.652;2023-03-31T03:33:03;16.1;60.4
76509;SHT31;65340;51.966;5.652;2023-03-31T03:35:33;16.1;60.5
76509;SHT31;65340;51.966;5.652;2023-03-31T03:38:03;16.1;60.4
76509;SHT31;65340;51.966;5.652;2023-03-31T03:40:32;16.1;60.5
76509;SHT31;65340;51.966;5.652;2023-03-31T03:43:02;16.1;60.4
76509;SHT31;65340;51.966;5.652;2023-03-31T03:45:32;16.1;60.4
76509;SHT31;65340;51.966;5.652;2023-03-31T03:48:02;16.1;60.4
76509;SHT31;65340;51.966;5.652;2023-03-31T03:53:09;16.1;60.5
76509;SHT31;65340;51.966;5.652;2023-03-31T03:55:40;16.1;60.5
76509;SHT31;65340;51.966;5.652;2023-03-31T03:58:11;16.1;60.5
76509;SHT31;65340;51.966;5.652;2023-03-31T04:00:41;16.1;60.6
76509;SHT31;65340;51.966;5.652;2023-03-31T04:03:12;16.1;60.6
76509;SHT31;65340;51.966;5.652;2023-03-31T04:05:41;16.1;60.6
76509;SHT31;65340;51.966;5.652;2023-03-31T04:08:11;16.1;60.7
76509;SHT31;65340;51.966;5.652;2023-03-31T04:10:45;16.1;60.7
76509;SHT31;65340;51.966;5.652;2023-03-31T04:13:15;16.1;60.7
76509;SHT31;65340;51.966;5.652;2023-03-31T04:15:46;16.1;60.7
76509;SHT31;65340;51.966;5.652;2023-03-31T04:18:17;16.1;60.7
76509;SHT31;65340;51.966;5.652;2023-03-31T04:20:50;16.1;60.8
76509;SHT31;65340;51.966;5.652;2023-03-31T04:23:27;16.1;60.8
76509;SHT31;65340;51.966;5.652;2023-03-31T04:25:58;16.1;60.9
76509;SHT31;65340;51.966;5.652;2023-03-31T04:28:29;16.1;60.9
76509;SHT31;65340;51.966;5.652;2023-03-31T04:31:02;16.1;60.8
76509;SHT31;65340;51.966;5.652;2023-03-31T04:33:32;16.1;60.8
76509;SHT31;65340;51.966;5.652;2023-03-31T04:36:05;16.1;60.8
76509;SHT31;65340;51.966;5.652;2023-03-31T04:38:44;16.1;60.8
76509;SHT31;65340;51.966;5.652;2023-03-31T04:41:17;16.1;60.8
76509;SHT31;65340;51.966;5.652;2023-03-31T04:43:46;16.1;60.7
76509;SHT31;65340;51.966;5.652;2023-03-31T04:46:16;16.1;60.8
76509;SHT31;65340;51.966;5.652;2023-03-31T04:48:46;16.1;60.8
76509;SHT31;65340;51.966;5.652;2023-03-31T04:51:16;16.1;60.8
76509;SHT31;65340;51.966;5.652;2023-03-31T04:53:46;16.1;60.9
76509;SHT31;65340;51.966;5.652;2023-03-31T04:56:16;16.1;60.8
76509;SHT31;65340;51.966;5.652;2023-03-31T04:58:46;16.1;60.9
76509;SHT31;65340;51.966;5.652;2023-03-31T05:01:16;16.1;61.0
76509;SHT31;65340;51.966;5.652;2023-03-31T05:03:47;16.1;60.9
76509;SHT31;65340;51.966;5.652;2023-03-31T05:06:17;16.1;60.8
76509;SHT31;65340;51.966;5.652;2023-03-31T05:08:47;16.1;60.9
76509;SHT31;65340;51.966;5.652;2023-03-31T05:11:17;16.1;60.9
76509;SHT31;65340;51.966;5.652;2023-03-31T05:13:46;16.1;61.0
76509;SHT31;65340;51.966;5.652;2023-03-31T05:16:16;16.1;61.0
76509;SHT31;65340;51.966;5.652;2023-03-31T05:18:46;16.1;61.0
76509;SHT31;65340;51.966;5.652;2023-03-31T05:21:18;16.1;61.0
76509;SHT31;65340;51.966;5.652;2023-03-31T05:23:49;16.1;61.0
76509;SHT31;65340;51.966;5.652;2023-03-31T05:26:20;16.0;61.0
76509;SHT31;65340;51.966;5.652;2023-03-31T05:28:51;16.0;60.9
76509;SHT31;65340;51.966;5.652;2023-03-31T05:31:22;16.0;60.9
76509;SHT31;65340;51.966;5.652;2023-03-31T05:33:54;16.0;60.8
76509;SHT31;65340;51.966;5.652;2023-03-31T05:36:26;16.0;60.9
76509;SHT31;65340;51.966;5.652;2023-03-31T05:38:57;16.0;60.9
76509;SHT31;65340;51.966;5.652;2023-03-31T05:41:27;16.0;60.8
76509;SHT31;65340;51.966;5.652;2023-03-31T05:43:57;16.0;60.8
76509;SHT31;65340;51.966;5.652;2023-03-31T05:46:27;16.0;60.8
76509;SHT31;65340;51.966;5.652;2023-03-31T05:48:57;16.0;60.8
76509;SHT31;65340;51.966;5.652;2023-03-31T05:51:27;16.0;60.8
76509;SHT31;65340;51.966;5.652;2023-03-31T05:53:57;16.0;60.7
76509;SHT31;65340;51.966;5.652;2023-03-31T05:56:27;16.0;60.8
76509;SHT31;65340;51.966;5.652;2023-03-31T05:58:58;16.0;60.8
76509;SHT31;65340;51.966;5.652;2023-03-31T06:01:28;16.0;60.8
76509;SHT31;65340;51.966;5.652;2023-03-31T06:03:59;16.0;60.7
76509;SHT31;65340;51.966;5.652;2023-03-31T06:06:29;16.0;60.7
76509;SHT31;65340;51.966;5.652;2023-03-31T06:09:00;16.0;60.7
76509;SHT31;65340;51.966;5.652;2023-03-31T06:11:29;16.0;60.7
76509;SHT31;65340;51.966;5.652;2023-03-31T06:13:59;16.0;60.6
76509;SHT31;65340;51.966;5.652;2023-03-31T06:16:29;16.0;60.6
76509;SHT31;65340;51.966;5.652;2023-03-31T06:18:59;16.0;60.5
76509;SHT31;65340;51.966;5.652;2023-03-31T06:21:29;16.0;60.6
76509;SHT31;65340;51.966;5.652;2023-03-31T06:23:59;16.0;60.6
76509;SHT31;65340;51.966;5.652;2023-03-31T06:26:29;16.0;60.5
76509;SHT31;65340;51.966;5.652;2023-03-31T06:28:59;16.0;60.5
76509;SHT31;65340;51.966;5.652;2023-03-31T06:31:28;16.0;60.6
76509;SHT31;65340;51.966;5.652;2023-03-31T06:34:00;16.0;60.5
76509;SHT31;65340;51.966;5.652;2023-03-31T06:36:29;16.0;60.5
76509;SHT31;65340;51.966;5.652;2023-03-31T06:38:59;16.0;60.4
76509;SHT31;65340;51.966;5.652;2023-03-31T06:41:29;16.0;60.5
76509;SHT31;65340;51.966;5.652;2023-03-31T06:43:59;16.1;60.4
76509;SHT31;65340;51.966;5.652;2023-03-31T06:46:29;16.1;60.4
76509;SHT31;65340;51.966;5.652;2023-03-31T06:49:00;16.1;60.3
76509;SHT31;65340;51.966;5.652;2023-03-31T06:51:30;16.1;60.2
76509;SHT31;65340;51.966;5.652;2023-03-31T06:54:00;16.1;60.2
76509;SHT31;65340;51.966;5.652;2023-03-31T06:56:30;16.0;60.3
76509;SHT31;65340;51.966;5.652;2023-03-31T06:58:59;16.1;60.3
76509;SHT31;65340;51.966;5.652;2023-03-31T07:01:29;16.1;60.4
76509;SHT31;65340;51.966;5.652;2023-03-31T07:04:04;16.1;60.3
76509;SHT31;65340;51.966;5.652;2023-03-31T07:06:33;16.1;60.8
76509;SHT31;65340;51.966;5.652;2023-03-31T07:09:03;16.1;60.8
76509;SHT31;65340;51.966;5.652;2023-03-31T07:11:35;16.1;60.6
76509;SHT31;65340;51.966;5.652;2023-03-31T07:14:05;16.1;60.5
76509;SHT31;65340;51.966;5.652;2023-03-31T07:16:34;16.1;60.6
76509;SHT31;65340;51.966;5.652;2023-03-31T07:19:05;16.1;60.6
76509;SHT31;65340;51.966;5.652;2023-03-31T07:21:37;16.1;60.8
76509;SHT31;65340;51.966;5.652;2023-03-31T07:24:09;16.1;60.6
76509;SHT31;65340;51.966;5.652;2023-03-31T07:26:42;16.1;60.7
76509;SHT31;65340;51.966;5.652;2023-03-31T07:29:12;16.1;60.7
76509;SHT31;65340;51.966;5.652;2023-03-31T07:31:42;16.1;60.7
76509;SHT31;65340;51.966;5.652;2023-03-31T07:34:11;16.1;60.8
76509;SHT31;65340;51.966;5.652;2023-03-31T07:36:43;16.1;61.0
76509;SHT31;65340;51.966;5.652;2023-03-31T07:39:15;16.1;60.9
76509;SHT31;65340;51.966;5.652;2023-03-31T07:41:45;16.1;60.8
76509;SHT31;65340;51.966;5.652;2023-03-31T07:44:15;16.1;60.9
76509;SHT31;65340;51.966;5.652;2023-03-31T07:46:45;16.1;60.8
76509;SHT31;65340;51.966;5.652;2023-03-31T07:49:15;16.1;60.8
76509;SHT31;65340;51.966;5.652;2023-03-31T07:51:46;16.1;60.8
76509;SHT31;65340;51.966;5.652;2023-03-31T07:54:16;16.1;60.7
76509;SHT31;65340;51.966;5.652;2023-03-31T07:56:46;16.1;60.7
76509;SHT31;65340;51.966;5.652;2023-03-31T07:59:15;16.1;60.7
76509;SHT31;65340;51.966;5.652;2023-03-31T08:01:45;16.1;60.7
76509;SHT31;65340;51.966;5.652;2023-03-31T08:04:15;16.1;60.8
76509;SHT31;65340;51.966;5.652;2023-03-31T08:06:45;16.1;60.7
76509;SHT31;65340;51.966;5.652;2023-03-31T08:09:14;16.1;60.8
76509;SHT31;65340;51.966;5.652;2023-03-31T08:11:44;16.1;60.8
76509;SHT31;65340;51.966;5.652;2023-03-31T08:14:14;16.1;60.8
76509;SHT31;65340;51.966;5.652;2023-03-31T08:16:44;16.1;60.8
76509;SHT31;65340;51.966;5.652;2023-03-31T08:19:14;16.1;60.7
76509;SHT31;65340;51.966;5.652;2023-03-31T08:21:43;16.1;60.8
76509;SHT31;65340;51.966;5.652;2023-03-31T08:24:13;16.1;60.8
76509;SHT31;65340;51.966;5.652;2023-03-31T08:26:45;16.1;60.8
76509;SHT31;65340;51.966;5.652;2023-03-31T08:29:15;16.1;60.7
76509;SHT31;65340;51.966;5.652;2023-03-31T08:31:45;16.1;60.7
76509;SHT31;65340;51.966;5.652;2023-03-31T08:34:15;16.1;60.7
76509;SHT31;65340;51.966;5.652;2023-03-31T08:36:44;16.1;60.8
76509;SHT31;65340;51.966;5.652;2023-03-31T08:39:17;16.1;60.8
76509;SHT31;65340;51.966;5.652;2023-03-31T08:41:56;16.2;60.8
76509;SHT31;65340;51.966;5.652;2023-03-31T08:44:32;16.2;60.8
76509;SHT31;65340;51.966;5.652;2023-03-31T08:47:09;16.2;60.8
76509;SHT31;65340;51.966;5.652;2023-03-31T08:49:44;16.2;60.8
76509;SHT31;65340;51.966;5.652;2023-03-31T08:52:21;16.2;60.8
76509;SHT31;65340;51.966;5.652;2023-03-31T08:54:56;16.2;60.8
76509;SHT31;65340;51.966;5.652;2023-03-31T08:57:32;16.2;60.8
76509;SHT31;65340;51.966;5.652;2023-03-31T09:00:08;16.2;60.9
76509;SHT31;65340;51.966;5.652;2023-03-31T09:02:45;16.2;60.9
76509;SHT31;65340;51.966;5.652;2023-03-31T09:05:39;16.2;60.9
76509;SHT31;65340;51.966;5.652;2023-03-31T09:08:22;16.2;60.9
76509;SHT31;65340;51.966;5.652;2023-03-31T09:10:59;16.2;60.9
76509;SHT31;65340;51.966;5.652;2023-03-31T09:13:54;16.3;60.9
76509;SHT31;65340;51.966;5.652;2023-03-31T09:16:29;16.3;60.9
76509;SHT31;65340;51.966;5.652;2023-03-31T09:19:02;16.3;60.9
76509;SHT31;65340;51.966;5.652;2023-03-31T09:21:36;16.3;60.9
76509;SHT31;65340;51.966;5.652;2023-03-31T09:24:13;16.3;60.9
76509;SHT31;65340;51.966;5.652;2023-03-31T09:26:48;16.3;60.9
76509;SHT31;65340;51.966;5.652;2023-03-31T09:29:22;16.3;60.8
76509;SHT31;65340;51.966;5.652;2023-03-31T09:32:00;16.3;60.9
76509;SHT31;65340;51.966;5.652;2023-03-31T09:34:33;16.3;60.9
76509;SHT31;65340;51.966;5.652;2023-03-31T09:37:04;16.3;60.8
76509;SHT31;65340;51.966;5.652;2023-03-31T09:39:35;16.3;60.9
76509;SHT31;65340;51.966;5.652;2023-03-31T09:42:08;16.3;60.9
76509;SHT31;65340;51.966;5.652;2023-03-31T09:44:42;16.3;60.8
76509;SHT31;65340;51.966;5.652;2023-03-31T09:47:16;16.3;60.8
76509;SHT31;65340;51.966;5.652;2023-03-31T09:49:49;16.3;60.8
76509;SHT31;65340;51.966;5.652;2023-03-31T09:52:25;16.3;60.7
76509;SHT31;65340;51.966;5.652;2023-03-31T09:54:59;16.3;60.7
76509;SHT31;65340;51.966;5.652;2023-03-31T09:57:32;16.4;60.7
76509;SHT31;65340;51.966;5.652;2023-03-31T10:00:04;16.4;60.7
76509;SHT31;65340;51.966;5.652;2023-03-31T10:02:48;16.4;60.6
76509;SHT31;65340;51.966;5.652;2023-03-31T10:05:33;16.4;60.6
76509;SHT31;65340;51.966;5.652;2023-03-31T10:08:20;16.4;60.5
76509;SHT31;65340;51.966;5.652;2023-03-31T10:10:52;16.3;60.5
76509;SHT31;65340;51.966;5.652;2023-03-31T10:13:25;16.3;60.5
76509;SHT31;65340;51.966;5.652;2023-03-31T10:16:03;16.4;60.4
76509;SHT31;65340;51.966;5.652;2023-03-31T10:18:37;16.4;60.4
76509;SHT31;65340;51.966;5.652;2023-03-31T10:21:19;16.4;60.3
76509;SHT31;65340;51.966;5.652;2023-03-31T10:23:50;16.4;60.2
76509;SHT31;65340;51.966;5.652;2023-03-31T10:26:25;16.4;60.2
76509;SHT31;65340;51.966;5.652;2023-03-31T10:28:55;16.4;60.1
76509;SHT31;65340;51.966;5.652;2023-03-31T10:31:35;16.4;60.1
76509;SHT31;65340;51.966;5.652;2023-03-31T10:34:08;16.4;60.0
76509;SHT31;65340;51.966;5.652;2023-03-31T10:36:47;16.4;60.0
76509;SHT31;65340;51.966;5.652;2023-03-31T10:39:19;16.4;59.9
76509;SHT31;65340;51.966;5.652;2023-03-31T10:41:52;16.4;59.8
76509;SHT31;65340;51.966;5.652;2023-03-31T10:44:34;16.4;59.7
76509;SHT31;65340;51.966;5.652;2023-03-31T10:47:11;16.5;59.7
76509;SHT31;65340;51.966;5.652;2023-03-31T10:49:43;16.5;59.7
76509;SHT31;65340;51.966;5.652;2023-03-31T10:52:18;16.5;59.7
76509;SHT31;65340;51.966;5.652;2023-03-31T10:54:54;16.5;59.6
76509;SHT31;65340;51.966;5.652;2023-03-31T10:57:34;16.5;59.5
76509;SHT31;65340;51.966;5.652;2023-03-31T11:00:11;16.5;59.4
76509;SHT31;65340;51.966;5.652;2023-03-31T11:03:00;16.5;59.3
76509;SHT31;65340;51.966;5.652;2023-03-31T11:05:37;16.5;59.3
76509;SHT31;65340;51.966;5.652;2023-03-31T11:08:23;16.5;59.2
76509;SHT31;65340;51.966;5.652;2023-03-31T11:11:13;16.5;59.2
76509;SHT31;65340;51.966;5.652;2023-03-31T11:13:54;16.5;59.2
76509;SHT31;65340;51.966;5.652;2023-03-31T11:16:36;16.5;59.2
76509;SHT31;65340;51.966;5.652;2023-03-31T11:19:21;16.5;59.1
76509;SHT31;65340;51.966;5.652;2023-03-31T11:22:00;16.5;59.1
76509;SHT31;65340;51.966;5.652;2023-03-31T11:24:46;16.5;59.0
76509;SHT31;65340;51.966;5.652;2023-03-31T11:27:28;16.5;59.0
76509;SHT31;65340;51.966;5.652;2023-03-31T11:30:05;16.5;59.0
76509;SHT31;65340;51.966;5.652;2023-03-31T11:32:50;16.5;59.0
76509;SHT31;65340;51.966;5.652;2023-03-31T11:35:44;16.6;58.9
76509;SHT31;65340;51.966;5.652;2023-03-31T11:38:35;16.6;58.9
76509;SHT31;65340;51.966;5.652;2023-03-31T11:41:13;16.6;58.9
76509;SHT31;65340;51.966;5.652;2023-03-31T11:43:47;16.6;58.8
76509;SHT31;65340;51.966;5.652;2023-03-31T11:46:22;16.6;58.8
76509;SHT31;65340;51.966;5.652;2023-03-31T11:48:58;16.6;58.8
76509;SHT31;65340;51.966;5.652;2023-03-31T11:51:38;16.6;58.8
76509;SHT31;65340;51.966;5.652;2023-03-31T11:54:19;16.5;58.8
76509;SHT31;65340;51.966;5.652;2023-03-31T11:56:52;16.5;58.8
76509;SHT31;65340;51.966;5.652;2023-03-31T11:59:25;16.5;58.8
76509;SHT31;65340;51.966;5.652;2023-03-31T12:02:09;16.5;58.7
76509;SHT31;65340;51.966;5.652;2023-03-31T12:04:44;16.5;58.7
76509;SHT31;65340;51.966;5.652;2023-03-31T12:07:22;16.5;58.6
76509;SHT31;65340;51.966;5.652;2023-03-31T12:09:58;16.5;58.6
76509;SHT31;65340;51.966;5.652;2023-03-31T12:12:36;16.5;58.5
76509;SHT31;65340;51.966;5.652;2023-03-31T12:15:16;16.5;58.4
76509;SHT31;65340;51.966;5.652;2023-03-31T12:17:53;16.5;58.5
76509;SHT31;65340;51.966;5.652;2023-03-31T12:20:32;16.5;58.4
76509;SHT31;65340;51.966;5.652;2023-03-31T12:23:12;16.5;58.4
76509;SHT31;65340;51.966;5.652;2023-03-31T12:25:53;16.5;58.3
76509;SHT31;65340;51.966;5.652;2023-03-31T12:28:25;16.5;58.3
76509;SHT31;65340;51.966;5.652;2023-03-31T12:30:57;16.5;58.3
76509;SHT31;65340;51.966;5.652;2023-03-31T12:33:31;16.5;58.3
76509;SHT31;65340;51.966;5.652;2023-03-31T12:36:18;16.5;58.3
76509;SHT31;65340;51.966;5.652;2023-03-31T12:38:57;16.5;58.4
76509;SHT31;65340;51.966;5.652;2023-03-31T12:41:39;16.5;58.4
76509;SHT31;65340;51.966;5.652;2023-03-31T12:44:26;16.5;58.4
76509;SHT31;65340;51.966;5.652;2023-03-31T12:47:17;16.5;58.5
76509;SHT31;65340;51.966;5.652;2023-03-31T12:49:59;16.5;58.4
76509;SHT31;65340;51.966;5.652;2023-03-31T12:52:42;16.5;58.5
76509;SHT31;65340;51.966;5.652;2023-03-31T12:55:34;16.5;58.5
76509;SHT31;65340;51.966;5.652;2023-03-31T12:58:47;16.5;58.5
76509;SHT31;65340;51.966;5.652;2023-03-31T13:01:18;16.5;58.6
76509;SHT31;65340;51.966;5.652;2023-03-31T13:03:51;16.5;58.5
76509;SHT31;65340;51.966;5.652;2023-03-31T13:06:52;16.5;58.6
76509;SHT31;65340;51.966;5.652;2023-03-31T13:09:45;16.6;58.6
76509;SHT31;65340;51.966;5.652;2023-03-31T13:12:21;16.6;58.5
76509;SHT31;65340;51.966;5.652;2023-03-31T13:14:53;16.6;58.5
76509;SHT31;65340;51.966;5.652;2023-03-31T13:17:32;16.6;58.5
76509;SHT31;65340;51.966;5.652;2023-03-31T13:20:35;16.6;58.5
76509;SHT31;65340;51.966;5.652;2023-03-31T13:23:19;16.6;58.4
76509;SHT31;65340;51.966;5.652;2023-03-31T13:25:53;16.6;58.3
76509;SHT31;65340;51.966;5.652;2023-03-31T13:28:33;16.6;58.3
76509;SHT31;65340;51.966;5.652;2023-03-31T13:31:07;16.6;58.3
76509;SHT31;65340;51.966;5.652;2023-03-31T13:33:55;16.6;58.3
76509;SHT31;65340;51.966;5.652;2023-03-31T13:37:40;16.6;58.3
76509;SHT31;65340;51.966;5.652;2023-03-31T13:40:40;16.6;58.3
76509;SHT31;65340;51.966;5.652;2023-03-31T13:43:35;16.6;58.3
76509;SHT31;65340;51.966;5.652;2023-03-31T13:47:01;16.6;58.2
76509;SHT31;65340;51.966;5.652;2023-03-31T13:54:03;16.6;58.2
76509;SHT31;65340;51.966;5.652;2023-03-31T13:56:49;16.6;58.3
76509;SHT31;65340;51.966;5.652;2023-03-31T13:59:45;16.6;58.3
76509;SHT31;65340;51.966;5.652;2023-03-31T14:02:41;16.5;58.4
76509;SHT31;65340;51.966;5.652;2023-03-31T14:05:24;16.5;58.5
76509;SHT31;65340;51.966;5.652;2023-03-31T14:07:57;16.5;58.5
76509;SHT31;65340;51.966;5.652;2023-03-31T14:10:30;16.5;58.6
76509;SHT31;65340;51.966;5.652;2023-03-31T14:13:10;16.5;58.7
76509;SHT31;65340;51.966;5.652;2023-03-31T14:15:45;16.5;58.8
76509;SHT31;65340;51.966;5.652;2023-03-31T14:18:21;16.5;58.8
76509;SHT31;65340;51.966;5.652;2023-03-31T14:21:21;16.5;58.8
76509;SHT31;65340;51.966;5.652;2023-03-31T14:24:04;16.5;58.9
76509;SHT31;65340;51.966;5.652;2023-03-31T14:26:49;16.5;58.9
76509;SHT31;65340;51.966;5.652;2023-03-31T14:29:27;16.5;58.9
76509;SHT31;65340;51.966;5.652;2023-03-31T14:32:09;16.5;58.8
76509;SHT31;65340;51.966;5.652;2023-03-31T14:34:55;16.5;58.8
76509;SHT31;65340;51.966;5.652;2023-03-31T14:37:28;16.5;58.8
76509;SHT31;65340;51.966;5.652;2023-03-31T14:40:01;16.5;58.8
76509;SHT31;65340;51.966;5.652;2023-03-31T14:42:37;16.5;58.8
76509;SHT31;65340;51.966;5.652;2023-03-31T14:45:18;16.5;58.8
76509;SHT31;65340;51.966;5.652;2023-03-31T14:47:56;16.5;58.8
76509;SHT31;65340;51.966;5.652;2023-03-31T14:50:33;16.5;58.8
76509;SHT31;65340;51.966;5.652;2023-03-31T14:53:03;16.5;58.8
76509;SHT31;65340;51.966;5.652;2023-03-31T14:55:33;16.5;58.8
76509;SHT31;65340;51.966;5.652;2023-03-31T14:58:03;16.5;58.8
76509;SHT31;65340;51.966;5.652;2023-03-31T15:00:37;16.5;58.8
76509;SHT31;65340;51.966;5.652;2023-03-31T15:03:12;16.5;58.8
76509;SHT31;65340;51.966;5.652;2023-03-31T15:05:44;16.5;58.9
76509;SHT31;65340;51.966;5.652;2023-03-31T15:08:18;16.5;58.9
76509;SHT31;65340;51.966;5.652;2023-03-31T15:10:51;16.5;58.9
76509;SHT31;65340;51.966;5.652;2023-03-31T15:13:30;16.5;58.9
76509;SHT31;65340;51.966;5.652;2023-03-31T15:16:20;16.5;58.9
76509;SHT31;65340;51.966;5.652;2023-03-31T15:18:57;16.5;58.9
76509;SHT31;65340;51.966;5.652;2023-03-31T15:21:30;16.5;58.9
76509;SHT31;65340;51.966;5.652;2023-03-31T15:24:03;16.5;59.0
76509;SHT31;65340;51.966;5.652;2023-03-31T15:26:35;16.5;59.0
76509;SHT31;65340;51.966;5.652;2023-03-31T15:29:11;16.5;59.0
76509;SHT31;65340;51.966;5.652;2023-03-31T15:31:42;16.5;59.0
76509;SHT31;65340;51.966;5.652;2023-03-31T15:34:19;16.5;59.1
76509;SHT31;65340;51.966;5.652;2023-03-31T15:36:52;16.5;59.1
76509;SHT31;65340;51.966;5.652;2023-03-31T15:39:25;16.5;59.1
76509;SHT31;65340;51.966;5.652;2023-03-31T15:41:56;16.5;59.2
76509;SHT31;65340;51.966;5.652;2023-03-31T15:44:38;16.5;59.2
76509;SHT31;65340;51.966;5.652;2023-03-31T15:47:16;16.5;59.2
76509;SHT31;65340;51.966;5.652;2023-03-31T15:49:52;16.5;59.1
76509;SHT31;65340;51.966;5.652;2023-03-31T15:52:26;16.5;59.1
76509;SHT31;65340;51.966;5.652;2023-03-31T15:54:57;16.5;59.2
76509;SHT31;65340;51.966;5.652;2023-03-31T15:57:33;16.5;59.1
76509;SHT31;65340;51.966;5.652;2023-03-31T16:00:05;16.5;59.2
76509;SHT31;65340;51.966;5.652;2023-03-31T16:02:42;16.5;59.2
76509;SHT31;65340;51.966;5.652;2023-03-31T16:05:32;16.5;59.2
76509;SHT31;65340;51.966;5.652;2023-03-31T16:08:10;16.5;59.2
76509;SHT31;65340;51.966;5.652;2023-03-31T16:10:43;16.4;59.2
76509;SHT31;65340;51.966;5.652;2023-03-31T16:13:20;16.4;59.3
76509;SHT31;65340;51.966;5.652;2023-03-31T16:15:53;16.4;59.3
76509;SHT31;65340;51.966;5.652;2023-03-31T16:18:29;16.4;59.3
76509;SHT31;65340;51.966;5.652;2023-03-31T16:21:06;16.4;59.3
76509;SHT31;65340;51.966;5.652;2023-03-31T16:23:39;16.4;59.3
76509;SHT31;65340;51.966;5.652;2023-03-31T16:26:11;16.4;59.3
76509;SHT31;65340;51.966;5.652;2023-03-31T16:28:49;16.4;59.3
76509;SHT31;65340;51.966;5.652;2023-03-31T16:31:30;16.4;59.3
76509;SHT31;65340;51.966;5.652;2023-03-31T16:34:03;16.4;59.3
76509;SHT31;65340;51.966;5.652;2023-03-31T16:36:33;16.4;59.3
76509;SHT31;65340;51.966;5.652;2023-03-31T16:39:04;16.4;59.3
76509;SHT31;65340;51.966;5.652;2023-03-31T16:41:36;16.4;59.3
76509;SHT31;65340;51.966;5.652;2023-03-31T16:44:08;16.4;59.3
76509;SHT31;65340;51.966;5.652;2023-03-31T16:46:40;16.4;59.3
76509;SHT31;65340;51.966;5.652;2023-03-31T16:49:10;16.4;59.4
76509;SHT31;65340;51.966;5.652;2023-03-31T16:51:39;16.4;59.4
76509;SHT31;65340;51.966;5.652;2023-03-31T16:54:09;16.4;59.3
76509;SHT31;65340;51.966;5.652;2023-03-31T16:56:39;16.4;59.4
76509;SHT31;65340;51.966;5.652;2023-03-31T16:59:08;16.4;59.3
76509;SHT31;65340;51.966;5.652;2023-03-31T17:01:38;16.4;59.4
76509;SHT31;65340;51.966;5.652;2023-03-31T17:04:09;16.3;59.4
76509;SHT31;65340;51.966;5.652;2023-03-31T17:06:40;16.3;59.5
76509;SHT31;65340;51.966;5.652;2023-03-31T17:09:09;16.3;59.5
76509;SHT31;65340;51.966;5.652;2023-03-31T17:11:41;16.3;59.5